createdAt,value
2023-05-24T00:06:30.914Z,44
2023-05-24T00:16:37.705Z,44
2023-05-24T00:26:44.389Z,44
2023-05-24T00:36:51.080Z,44
2023-05-24T00:46:57.836Z,44
2023-05-24T00:57:04.591Z,44
2023-05-24T01:07:11.311Z,44
2023-05-24T01:17:18.032Z,44
2023-05-24T01:27:24.798Z,44
2023-05-24T01:37:31.473Z,44
2023-05-24T01:47:38.261Z,43.5
2023-05-24T01:57:44.947Z,43.5
2023-05-24T02:07:51.680Z,43.5
2023-05-24T02:17:58.458Z,43.5
2023-05-24T02:28:05.119Z,43.5
2023-05-24T02:38:11.841Z,43.5
2023-05-24T02:48:18.549Z,43.5
2023-05-24T02:58:25.266Z,43.5
2023-05-24T03:08:32.019Z,43.5
2023-05-24T03:18:38.755Z,43.5
2023-05-24T03:28:45.456Z,43.5
2023-05-24T03:38:52.198Z,43.5
2023-05-24T03:48:58.918Z,41
2023-05-24T03:59:05.620Z,40
2023-05-24T04:09:12.353Z,40
2023-05-24T04:19:19.055Z,39.5
2023-05-24T04:29:25.799Z,39.5
2023-05-24T04:39:32.545Z,39.5
2023-05-24T04:49:39.251Z,41
2023-05-24T04:59:45.966Z,41.5
2023-05-24T05:09:53.926Z,41
2023-05-24T05:20:00.660Z,40.5
2023-05-24T05:30:07.363Z,40
2023-05-24T05:40:14.132Z,40
2023-05-24T05:50:20.809Z,40
2023-05-24T06:00:27.561Z,41.5
2023-05-24T06:10:34.258Z,42
2023-05-24T06:30:47.886Z,42.5
2023-05-24T06:40:54.432Z,42.5
2023-05-24T06:51:01.183Z,42.5
2023-05-24T07:01:07.992Z,42.5
2023-05-24T07:11:14.650Z,42.5
2023-05-24T07:21:21.349Z,41.5
2023-05-24T07:31:28.061Z,41
2023-05-24T07:41:34.808Z,41.5
2023-05-24T08:01:48.237Z,40
2023-05-24T08:11:54.960Z,40.5
2023-05-24T08:22:01.698Z,40
2023-05-24T08:32:08.455Z,40
2023-05-24T08:42:15.111Z,40
2023-05-24T08:52:25.980Z,40.5
2023-05-24T09:02:29.817Z,41
2023-05-24T09:22:43.268Z,40.5
2023-05-24T09:32:50.024Z,40.5
2023-05-24T09:42:56.708Z,40.5
2023-05-24T09:53:03.441Z,41
2023-05-24T10:13:16.892Z,40.5
2023-05-24T10:23:23.606Z,40.5
2023-05-24T10:33:30.327Z,40.5
2023-05-24T10:43:37.106Z,41
2023-05-24T10:53:43.767Z,40
2023-05-24T11:03:51.757Z,40.5
2023-05-24T11:13:58.462Z,39
2023-05-24T11:24:05.183Z,39.5
2023-05-24T11:34:11.927Z,40.5
2023-05-24T11:44:19.870Z,41
2023-05-24T11:54:26.578Z,41
2023-05-24T12:04:33.391Z,41
2023-05-24T12:14:40.122Z,41.5
2023-05-24T12:24:46.770Z,41.5
2023-05-24T12:34:53.485Z,41.5
2023-05-24T12:45:00.207Z,41.5
2023-05-24T12:55:06.929Z,41.5
2023-05-24T13:05:13.711Z,41.5
2023-05-24T13:15:20.389Z,41.5
2023-05-24T13:25:27.205Z,41.5
2023-05-24T13:35:33.840Z,41.5
2023-05-24T13:45:40.531Z,41.5
2023-05-24T13:55:47.280Z,41.5
2023-05-24T14:05:54.074Z,41.5
2023-05-24T14:16:00.762Z,42
2023-05-24T14:26:07.454Z,42
2023-05-24T14:36:14.201Z,42
2023-05-24T14:46:20.936Z,42
2023-05-24T14:56:27.640Z,42
2023-05-24T15:16:41.109Z,42
2023-05-24T15:26:49.029Z,42
2023-05-24T15:36:55.763Z,42
2023-05-24T15:47:02.573Z,42
2023-05-24T15:57:09.226Z,42
2023-05-24T16:07:15.920Z,42
2023-05-24T16:17:22.677Z,42
2023-05-24T16:27:29.374Z,42
2023-05-24T16:37:36.101Z,42
2023-05-24T16:47:42.950Z,42
2023-05-24T16:57:49.554Z,42
2023-05-24T17:07:56.291Z,42.5
2023-05-24T17:18:03.035Z,42.5
2023-05-24T17:28:09.718Z,42.5
2023-05-24T17:38:16.464Z,42.5
2023-05-24T17:48:23.167Z,42.5
2023-05-24T17:58:29.910Z,42.5
2023-05-24T18:08:36.648Z,42.5
2023-05-24T18:18:44.578Z,42.5
2023-05-24T18:28:51.295Z,42.5
2023-05-24T18:38:58.029Z,42.5
2023-05-24T18:49:04.759Z,42.5
2023-05-24T18:59:12.787Z,42.5
2023-05-24T19:09:19.440Z,42.5
2023-05-24T19:19:26.141Z,42.5
2023-05-24T19:29:32.882Z,42.5
2023-05-24T19:39:39.601Z,42.5
2023-05-24T19:49:46.321Z,43
2023-05-24T19:59:53.096Z,42.5
2023-05-24T20:09:59.783Z,42.5
2023-05-24T20:20:06.519Z,43
2023-05-24T20:30:13.200Z,43
2023-05-24T20:40:19.951Z,43
2023-05-24T20:50:26.662Z,43
2023-05-24T21:10:41.349Z,43
2023-05-24T21:20:48.088Z,43
2023-05-24T21:30:54.841Z,43
2023-05-24T21:41:01.511Z,43
2023-05-24T21:51:08.232Z,43
2023-05-24T22:01:14.983Z,43
2023-05-24T22:11:21.685Z,43
2023-05-24T22:31:35.192Z,42.5
2023-05-24T22:41:43.090Z,42.5
2023-05-24T22:51:49.828Z,42.5
2023-05-24T23:01:56.659Z,42.5
2023-05-24T23:12:03.296Z,42.5
2023-05-24T23:22:09.994Z,42.5
2023-05-24T23:32:16.722Z,42.5
2023-05-24T23:42:23.451Z,42.5
2023-05-24T23:52:30.181Z,42.5
